»·PEaware :: N707CP KOTH-KEUG

N707CP :: KOTH-KEUG

FLIGHT INFORMATION

Flight Status: Arrived
Operator: Privately registered:
United States
More flights under this callsign
Pilot: Chase W. (8260)
Aircraft: PIPER PA-30 TWIN COMANCHE
(PA30)
More flights by this aircraft type
Origin: KOTH North Bend Mun
United States
Destination: KEUG Mahlon Sweet
United States
More flights between these airports :: More routes between these airports
Route: OTH6 SCOTY V121 EUG
File this flight plan on PilotEdge
Remarks:
Altitude:
(Current/Filed)
5,000ft
Speed:
(Current/Filed)
150kts
Departed: 29-Oct-17 07:57 AM
Arrived: 29-Oct-17 08:52 AM
Distance/Time
Traveled:
62nm/0:55
Distance/Time
To Go:
Arrived

Flight Plot

Page will automatically refresh every two minutes.

Flight plan parsing failed; only flown route is shown


Map Options




Map Legend


Flown Route
Filed Route
Departure Airport
Arrival Airport
Navaid (VOR, NDB)
Fix

Horizontal Profiles

Position Reports

Time Latitude Longitude Heading Altitude Ground
Speed
29-Oct-17 07:50 43.417590 -124.247445 150 20ft 0kts
29-Oct-17 07:51 43.417590 -124.247445 150 20ft 0kts
29-Oct-17 07:52 43.417590 -124.247445 150 20ft 0kts
29-Oct-17 07:53 43.417590 -124.247445 150 20ft 0kts
29-Oct-17 07:54 43.417590 -124.247445 150 20ft 0kts
29-Oct-17 07:55 43.417590 -124.247445 150 20ft 0kts
29-Oct-17 07:56 43.417590 -124.247445 150 20ft 0kts
29-Oct-17 07:57 43.417590 -124.247445 150 20ft 0kts
29-Oct-17 07:58 43.417664 -124.247289 355 20ft 0kts
29-Oct-17 07:59 43.418274 -124.246741 49 20ft 14kts
29-Oct-17 08:00 43.416790 -124.252498 241 20ft 26kts
29-Oct-17 08:01 43.413931 -124.259944 321 20ft 8kts
29-Oct-17 08:02 43.416565 -124.256135 60 20ft 84kts
29-Oct-17 08:03 43.429929 -124.237542 350 724ft 116kts
29-Oct-17 08:04 43.427507 -124.264469 239 1940ft 107kts
29-Oct-17 08:05 43.416683 -124.293854 250 3212ft 105kts
29-Oct-17 08:06 43.427506 -124.316242 48 4260ft 124kts
29-Oct-17 08:07 43.426643 -124.288077 102 5063ft 120kts
29-Oct-17 08:08 43.422776 -124.248635 97 4997ft 164kts
29-Oct-17 08:09 43.418837 -124.205933 97 4980ft 166kts
29-Oct-17 08:10 43.420550 -124.167337 59 4978ft 166kts
29-Oct-17 08:11 43.435694 -124.143537 45 4979ft 166kts
29-Oct-17 08:12 43.450285 -124.123216 45 4977ft 166kts
29-Oct-17 08:13 43.465310 -124.102932 44 4975ft 166kts
29-Oct-17 08:14 43.480754 -124.082326 44 4978ft 166kts
29-Oct-17 08:15 43.497667 -124.059872 43 5015ft 170kts
29-Oct-17 08:16 43.514628 -124.037396 43 4976ft 168kts
29-Oct-17 08:17 43.531331 -124.015250 43 4982ft 168kts
29-Oct-17 08:18 43.548051 -123.993085 43 4976ft 167kts
29-Oct-17 08:19 43.568146 -123.966413 43 4976ft 166kts
29-Oct-17 08:20 43.586871 -123.941545 43 4980ft 167kts
29-Oct-17 08:21 43.616885 -123.901631 43 4992ft 167kts
29-Oct-17 08:22 43.649476 -123.858231 43 4992ft 167kts
29-Oct-17 08:23 43.680235 -123.817210 43 4975ft 166kts
29-Oct-17 08:24 43.705245 -123.783808 43 4980ft 166kts
29-Oct-17 08:25 43.726000 -123.756056 43 4975ft 166kts
29-Oct-17 08:26 43.742838 -123.733525 43 4980ft 168kts
29-Oct-17 08:27 43.758459 -123.712606 43 4976ft 167kts
29-Oct-17 08:28 43.778310 -123.686004 43 4980ft 167kts
29-Oct-17 08:29 43.796368 -123.661849 43 4975ft 166kts
29-Oct-17 08:30 43.813696 -123.638600 43 4975ft 166kts
29-Oct-17 08:31 43.829260 -123.617684 43 4975ft 166kts
29-Oct-17 08:32 43.845269 -123.596153 43 4994ft 168kts
29-Oct-17 08:33 43.860812 -123.575228 43 4976ft 168kts
29-Oct-17 08:34 43.878603 -123.551256 43 4974ft 166kts
29-Oct-17 08:35 43.898942 -123.523833 43 4975ft 166kts
29-Oct-17 08:36 43.932462 -123.480897 20 4965ft 169kts
29-Oct-17 08:37 43.975304 -123.465225 14 4975ft 166kts
29-Oct-17 08:38 44.009876 -123.452533 13 5046ft 165kts
29-Oct-17 08:39 44.028792 -123.445353 14 4990ft 170kts
29-Oct-17 08:40 44.046553 -123.438791 14 4983ft 168kts
29-Oct-17 08:41 44.076470 -123.427767 14 4982ft 167kts
29-Oct-17 08:42 44.105449 -123.417091 14 4975ft 167kts
29-Oct-17 08:43 44.132486 -123.407120 14 4982ft 167kts
29-Oct-17 08:44 44.154780 -123.398895 14 4978ft 167kts
29-Oct-17 08:45 44.191844 -123.385204 14 4976ft 166kts
29-Oct-17 08:46 44.235106 -123.369204 14 4684ft 176kts
29-Oct-17 08:47 44.274788 -123.354510 14 4392ft 177kts
29-Oct-17 08:48 44.313297 -123.340235 15 4145ft 178kts
29-Oct-17 08:49 44.330547 -123.293696 85 3570ft 160kts
29-Oct-17 08:50 44.334779 -123.233055 85 2955ft 156kts
29-Oct-17 08:51 44.305405 -123.218036 189 2858ft 140kts
29-Oct-17 08:52 44.267169 -123.220982 180 2908ft 155kts
29-Oct-17 08:53 44.221700 -123.220504 179 2105ft 162kts
29-Oct-17 08:54 44.187500 -123.219943 179 1427ft 94kts
29-Oct-17 08:55 44.160527 -123.219464 179 923ft 99kts
29-Oct-17 08:56 44.135186 -123.219094 180 419ft 79kts
29-Oct-17 08:57 44.124496 -123.217053 148 377ft 12kts
29-Oct-17 08:58 44.121022 -123.213913 49 377ft 16kts
29-Oct-17 08:59 44.121760 -123.212311 31 377ft 0kts

Navigation Log

Ident Type
Flight plan parsing failed, navigation log unavailable